Time;durP1;ratioP1;P1;durP2;ratioP2;P2;SDS_P1;SDS_P2;PMS_P1;PMS_P2;Temp;Humidity;BMP_temperature;BMP_pressure;BME280_temperature;BME280_humidity;BME280_pressure;Samples;Min_cycle;Max_cycle;Signal;HPM_P1;HPM_P2
2022/01/26 00:06:49;;;;;;;;;;;;;;;2.82;100.00;103302.56;5100073;28;19958;-81
2022/01/26 00:09:14;;;;;;;;;;;;;;;2.81;100.00;103308.53;5099761;28;19951;-81
2022/01/26 00:11:40;;;;;;;;;;;;;;;2.73;100.00;103308.47;5079940;28;19927;-82
2022/01/26 00:14:11;;;;;;;;;;;;;;;2.75;100.00;103301.72;5067069;28;19942;-80
2022/01/26 00:19:03;;;;;;;;;;;;;;;2.72;100.00;103301.41;5094965;28;19928;-80
2022/01/26 00:21:36;;;;;;;;;;;;;;;2.75;100.00;103310.47;5068244;28;19927;-80
2022/01/26 00:27:03;;;;;;;;;;;;;;;2.82;100.00;103305.16;5097828;28;19983;-80
2022/01/26 00:29:34;;;;;;;;;;;;;;;2.81;100.00;103297.19;5080420;28;19967;-81
2022/01/26 00:40:24;;;;;;;;;;;;;;;2.76;100.00;103275.88;5100456;28;19927;-80
2022/01/26 00:42:55;;;;;;;;;;;;;;;2.81;100.00;103277.31;5099196;28;19916;-80
2022/01/26 00:45:25;;;;;;;;;;;;;;;2.74;100.00;103277.41;5081067;28;19978;-81
2022/01/26 00:47:50;;;;;;;;;;;;;;;2.75;100.00;103271.44;5099253;28;19920;-80
2022/01/26 00:50:17;;;;;;;;;;;;;;;2.81;100.00;103274.72;5077355;28;19971;-80
2022/01/26 00:52:52;;;;;;;;;;;;;;;2.82;100.00;103280.81;5080242;28;20007;-80
2022/01/26 00:55:18;;;;;;;;;;;;;;;2.77;100.00;103276.81;5070723;28;19981;-80
2022/01/26 00:57:44;;;;;;;;;;;;;;;2.75;100.00;103275.72;5088433;28;19987;-80
2022/01/26 01:00:11;;;;;;;;;;;;;;;2.70;100.00;103275.22;5083859;28;20402;-80
2022/01/26 01:02:38;;;;;;;;;;;;;;;2.67;100.00;103264.50;5083147;28;20265;-81
2022/01/26 01:05:14;;;;;;;;;;;;;;;2.68;100.00;103271.53;5102311;28;19947;-80
2022/01/26 01:07:41;;;;;;;;;;;;;;;2.64;100.00;103253.75;5081722;28;19924;-80
2022/01/26 01:10:06;;;;;;;;;;;;;;;2.66;100.00;103242.75;5081738;28;19920;-80
2022/01/26 01:12:40;;;;;;;;;;;;;;;2.68;100.00;103245.53;5078821;28;19920;-80
2022/01/26 01:15:05;;;;;;;;;;;;;;;2.72;100.00;103246.75;5082124;28;19936;-80
2022/01/26 01:17:37;;;;;;;;;;;;;;;2.69;100.00;103244.78;5080796;28;19920;-80
2022/01/26 01:20:17;;;;;;;;;;;;;;;2.70;100.00;103249.19;5071250;28;19920;-80
2022/01/26 01:22:54;;;;;;;;;;;;;;;2.68;100.00;103240.31;5080691;28;19920;-80
2022/01/26 01:27:57;;;;;;;;;;;;;;;2.71;100.00;103232.84;5089714;28;20345;-79
2022/01/26 01:30:28;;;;;;;;;;;;;;;2.69;100.00;103234.38;5080816;28;19921;-80
2022/01/26 01:33:19;;;;;;;;;;;;;;;2.70;100.00;103236.19;5080480;28;19979;-80
2022/01/26 01:35:41;;;;;;;;;;;;;;;2.69;100.00;103239.56;5097171;28;19935;-80
2022/01/26 01:38:11;;;;;;;;;;;;;;;2.61;100.00;103238.75;5075835;28;20394;-80
2022/01/26 01:40:39;;;;;;;;;;;;;;;2.61;100.00;103230.97;5057605;28;20225;-80
2022/01/26 01:43:10;;;;;;;;;;;;;;;2.57;100.00;103223.56;5094536;28;19920;-80
2022/01/26 01:45:38;;;;;;;;;;;;;;;2.55;100.00;103225.09;5077955;28;20245;-80
2022/01/26 01:48:04;;;;;;;;;;;;;;;2.55;100.00;103227.69;5078969;28;19920;-80
2022/01/26 01:50:30;;;;;;;;;;;;;;;2.57;100.00;103212.25;5071765;28;19943;-79
2022/01/26 01:53:01;;;;;;;;;;;;;;;2.49;100.00;103212.34;5079974;28;20367;-80
2022/01/26 01:55:32;;;;;;;;;;;;;;;2.48;100.00;103201.78;5061274;28;19927;-80
2022/01/26 01:57:57;;;;;;;;;;;;;;;2.48;100.00;103207.00;5079707;28;19959;-80
2022/01/26 02:00:23;;;;;;;;;;;;;;;2.48;100.00;103200.09;5077743;28;19947;-82
2022/01/26 02:02:49;;;;;;;;;;;;;;;2.49;100.00;103204.56;5077675;28;19923;-80
2022/01/26 02:05:14;;;;;;;;;;;;;;;2.45;100.00;103194.56;5095300;28;19920;-81
2022/01/26 02:07:39;;;;;;;;;;;;;;;2.45;100.00;103197.16;5096072;28;19927;-79
2022/01/26 02:10:05;;;;;;;;;;;;;;;2.46;100.00;103188.63;5079185;28;19920;-80
2022/01/26 02:12:34;;;;;;;;;;;;;;;2.49;100.00;103194.16;5077723;28;20549;-80
2022/01/26 02:15:08;;;;;;;;;;;;;;;2.47;100.00;103197.34;5077132;28;20014;-80
2022/01/26 02:56:20;;;;;;;;;;;;;;;2.48;100.00;103171.50;5035846;28;19921;-81
2022/01/26 03:04:14;;;;;;;;;;;;;;;2.49;100.00;103178.53;5063024;28;19943;-80
2022/01/26 03:07:05;;;;;;;;;;;;;;;2.49;100.00;103168.13;5077690;28;20276;-80
2022/01/26 03:09:34;;;;;;;;;;;;;;;2.45;100.00;103154.66;5061539;28;20019;-79
2022/01/26 03:12:02;;;;;;;;;;;;;;;2.44;100.00;103153.75;5060436;28;19978;-80
2022/01/26 03:16:59;;;;;;;;;;;;;;;2.43;100.00;103145.78;5056357;28;19933;-80
2022/01/26 03:19:35;;;;;;;;;;;;;;;2.43;100.00;103130.16;5072457;28;19924;-80
2022/01/26 03:30:29;;;;;;;;;;;;;;;2.43;100.00;103127.56;5076597;28;19927;-80
2022/01/26 03:35:49;;;;;;;;;;;;;;;2.43;100.00;103146.69;5070537;28;19925;-80
2022/01/26 03:38:39;;;;;;;;;;;;;;;2.42;100.00;103143.91;5059895;28;19951;-79
2022/01/26 03:43:49;;;;;;;;;;;;;;;2.41;100.00;103132.59;5096069;28;20024;-80
2022/01/26 03:46:14;;;;;;;;;;;;;;;2.45;100.00;103129.56;5078106;28;19927;-80
2022/01/26 03:48:40;;;;;;;;;;;;;;;2.44;100.00;103139.78;5078461;28;19924;-81
2022/01/26 03:51:05;;;;;;;;;;;;;;;2.44;100.00;103139.78;5078256;28;19927;-79
2022/01/26 03:53:30;;;;;;;;;;;;;;;2.43;100.00;103141.47;5096095;28;19927;-80
2022/01/26 03:55:55;;;;;;;;;;;;;;;2.43;100.00;103128.47;5078526;28;19920;-80
2022/01/26 03:58:21;;;;;;;;;;;;;;;2.40;100.00;103133.34;5078163;28;19920;-80
2022/01/26 04:00:48;;;;;;;;;;;;;;;2.45;100.00;103144.25;5077462;28;19916;-79
2022/01/26 04:03:20;;;;;;;;;;;;;;;2.46;100.00;103165.22;5077737;28;20363;-80
2022/01/26 04:05:45;;;;;;;;;;;;;;;2.49;100.00;103165.53;5085158;28;19921;-80
2022/01/26 04:08:17;;;;;;;;;;;;;;;2.47;100.00;103169.66;5076677;28;19920;-81
2022/01/26 04:11:06;;;;;;;;;;;;;;;2.43;100.00;103159.69;5081190;28;20330;-80
2022/01/26 04:13:32;;;;;;;;;;;;;;;2.49;100.00;103181.16;5077088;28;19921;-81
2022/01/26 04:15:57;;;;;;;;;;;;;;;2.48;100.00;103179.28;5072461;28;19920;-80
2022/01/26 04:18:29;;;;;;;;;;;;;;;2.49;100.00;103181.16;5080061;28;19969;-81
2022/01/26 04:20:58;;;;;;;;;;;;;;;2.47;100.00;103190.47;5079190;28;19920;-80
2022/01/26 04:25:52;;;;;;;;;;;;;;;2.54;100.00;103185.94;5098213;28;19924;-81
2022/01/26 04:28:24;;;;;;;;;;;;;;;2.48;100.00;103191.38;5081167;28;20287;-80
2022/01/26 04:30:49;;;;;;;;;;;;;;;2.48;100.00;103194.91;5081233;28;20392;-81
2022/01/26 04:33:15;;;;;;;;;;;;;;;2.47;100.00;103187.88;5083461;28;19920;-80
2022/01/26 04:35:43;;;;;;;;;;;;;;;2.46;100.00;103162.63;5103357;28;20326;-81
2022/01/26 04:40:44;;;;;;;;;;;;;;;2.48;100.00;103141.97;5087946;28;19949;-80
2022/01/26 04:43:19;;;;;;;;;;;;;;;2.46;100.00;103136.59;5086979;28;19992;-83
2022/01/26 04:45:45;;;;;;;;;;;;;;;2.48;100.00;103136.75;5079352;28;19946;-81
2022/01/26 04:48:10;;;;;;;;;;;;;;;2.54;100.00;103119.22;5075249;28;20631;-81
2022/01/26 04:50:35;;;;;;;;;;;;;;;2.47;100.00;103121.91;5085018;28;19930;-81
2022/01/26 04:53:02;;;;;;;;;;;;;;;2.47;100.00;103132.31;5084564;28;19920;-81
2022/01/26 04:55:27;;;;;;;;;;;;;;;2.54;100.00;103140.00;5082173;28;20011;-82
2022/01/26 04:57:52;;;;;;;;;;;;;;;2.56;100.00;103147.97;5083252;28;19943;-81
2022/01/26 05:00:18;;;;;;;;;;;;;;;2.53;100.00;103135.56;5084281;28;19920;-81
2022/01/26 05:02:44;;;;;;;;;;;;;;;2.56;100.00;103138.47;5085864;28;19947;-82
2022/01/26 05:05:09;;;;;;;;;;;;;;;2.56;100.00;103145.38;5082678;28;20412;-81
2022/01/26 05:07:35;;;;;;;;;;;;;;;2.60;100.00;103139.75;5077138;28;19921;-82
2022/01/26 05:10:02;;;;;;;;;;;;;;;2.65;100.00;103143.75;5069652;28;19927;-82
2022/01/26 05:12:28;;;;;;;;;;;;;;;2.61;100.00;103142.50;5087283;28;19928;-81
2022/01/26 05:14:53;;;;;;;;;;;;;;;2.65;100.00;103117.72;5077917;28;20368;-82
2022/01/26 05:17:20;;;;;;;;;;;;;;;2.66;100.00;103116.97;5072970;28;19927;-82
2022/01/26 05:19:46;;;;;;;;;;;;;;;2.64;100.00;103111.63;5111402;28;19926;-82
2022/01/26 05:22:13;;;;;;;;;;;;;;;2.65;100.00;103118.63;5103251;28;20020;-80
2022/01/26 05:24:38;;;;;;;;;;;;;;;2.67;100.00;103108.38;5075617;28;19927;-79
2022/01/26 05:27:03;;;;;;;;;;;;;;;2.67;100.00;103108.38;5078452;28;19924;-81
2022/01/26 05:29:29;;;;;;;;;;;;;;;2.66;100.00;103114.38;5079209;28;19927;-80
2022/01/26 05:32:12;;;;;;;;;;;;;;;2.73;100.00;103118.53;5098846;28;20367;-80
2022/01/26 05:34:37;;;;;;;;;;;;;;;2.73;100.00;103101.22;5098216;28;19920;-81
2022/01/26 05:37:03;;;;;;;;;;;;;;;2.76;100.00;103095.44;5083560;28;19920;-82
2022/01/26 05:39:28;;;;;;;;;;;;;;;2.78;100.00;103100.03;5077755;28;19920;-81
2022/01/26 05:41:56;;;;;;;;;;;;;;;2.79;100.00;103091.44;5077823;28;20002;-81
2022/01/26 05:44:22;;;;;;;;;;;;;;;2.84;100.00;103102.34;5077762;28;19955;-81
2022/01/26 05:46:49;;;;;;;;;;;;;;;2.84;100.00;103121.50;5096285;28;20631;-81
2022/01/26 05:49:17;;;;;;;;;;;;;;;2.83;100.00;103122.25;5077810;28;19920;-83
2022/01/26 05:51:45;;;;;;;;;;;;;;;2.84;100.00;103112.75;5078000;28;19920;-81
2022/01/26 05:54:11;;;;;;;;;;;;;;;2.83;100.00;103113.53;5077755;28;20017;-81
2022/01/26 05:56:36;;;;;;;;;;;;;;;2.81;100.00;103120.22;5077679;28;19920;-82
2022/01/26 05:59:01;;;;;;;;;;;;;;;2.72;100.00;103124.47;5078003;28;19955;-81
2022/01/26 06:01:27;;;;;;;;;;;;;;;2.76;100.00;103117.16;5077463;28;19981;-82
2022/01/26 06:03:55;;;;;;;;;;;;;;;2.74;100.00;103139.50;5077726;28;20435;-81
2022/01/26 06:06:21;;;;;;;;;;;;;;;2.70;100.00;103147.75;5095911;28;20273;-81
2022/01/26 06:08:46;;;;;;;;;;;;;;;2.72;100.00;103158.31;5078298;28;19920;-81
2022/01/26 06:11:11;;;;;;;;;;;;;;;2.67;100.00;103163.03;5077372;28;19971;-81
2022/01/26 06:13:40;;;;;;;;;;;;;;;2.65;100.00;103161.94;5076482;28;19955;-81
2022/01/26 06:16:05;;;;;;;;;;;;;;;2.73;100.00;103152.34;5077348;28;19982;-80
2022/01/26 06:18:30;;;;;;;;;;;;;;;2.72;100.00;103153.09;5077258;28;20030;-80
2022/01/26 06:20:56;;;;;;;;;;;;;;;2.74;100.00;103134.31;5077723;28;20284;-80
2022/01/26 06:23:26;;;;;;;;;;;;;;;2.74;100.00;103123.88;5076664;28;19920;-80
2022/01/26 06:25:56;;;;;;;;;;;;;;;2.71;100.00;103120.06;5077444;28;19928;-81
2022/01/26 06:28:23;;;;;;;;;;;;;;;2.78;100.00;103120.84;5076734;28;19923;-81
2022/01/26 06:30:51;;;;;;;;;;;;;;;2.80;100.00;103116.72;5095055;28;19927;-81
2022/01/26 06:33:20;;;;;;;;;;;;;;;2.73;100.00;103103.81;5073126;28;19948;-81
2022/01/26 06:35:45;;;;;;;;;;;;;;;2.78;100.00;103109.50;5056622;28;19927;-81
2022/01/26 06:38:10;;;;;;;;;;;;;;;2.75;100.00;103117.94;5059234;28;20018;-79
2022/01/26 06:40:36;;;;;;;;;;;;;;;2.75;100.00;103117.94;5077487;28;19955;-80
2022/01/26 06:43:10;;;;;;;;;;;;;;;2.71;100.00;103117.47;5077424;28;19927;-79
2022/01/26 06:45:41;;;;;;;;;;;;;;;2.82;100.00;103117.78;5077175;28;19923;-81
2022/01/26 06:50:50;;;;;;;;;;;;;;;2.82;100.00;103120.38;5090597;28;19926;-81
2022/01/26 06:53:15;;;;;;;;;;;;;;;2.77;100.00;103132.00;5077378;28;19951;-80
2022/01/26 06:55:40;;;;;;;;;;;;;;;2.76;100.00;103147.47;5077385;28;19916;-80
2022/01/26 06:58:06;;;;;;;;;;;;;;;2.82;100.00;103138.59;5077862;28;20383;-81
2022/01/26 07:00:32;;;;;;;;;;;;;;;2.84;100.00;103139.72;5077654;28;19920;-81
2022/01/26 07:02:57;;;;;;;;;;;;;;;2.82;100.00;103140.31;5077595;28;20364;-81
2022/01/26 07:05:23;;;;;;;;;;;;;;;2.81;100.00;103139.38;5077709;28;19922;-80
2022/01/26 07:07:48;;;;;;;;;;;;;;;2.75;100.00;103135.22;5076936;28;19923;-80
2022/01/26 07:10:14;;;;;;;;;;;;;;;2.79;100.00;103133.09;5066901;28;19994;-80
2022/01/26 07:12:39;;;;;;;;;;;;;;;2.84;100.00;103142.31;5063926;28;19931;-80
2022/01/26 07:23:12;;;;;;;;;;;;;;;2.78;100.00;103146.88;5103622;28;20378;-80
2022/01/26 07:25:38;;;;;;;;;;;;;;;2.76;100.00;103155.28;5082529;28;19946;-79
2022/01/26 07:28:04;;;;;;;;;;;;;;;2.80;100.00;103167.84;5079244;28;20435;-79
2022/01/26 07:30:30;;;;;;;;;;;;;;;2.84;100.00;103172.59;5059124;28;19924;-80
2022/01/26 07:32:55;;;;;;;;;;;;;;;2.86;100.00;103177.22;5080225;28;19963;-81
2022/01/26 07:35:21;;;;;;;;;;;;;;;2.79;100.00;103190.31;5067411;28;19923;-81
2022/01/26 07:37:47;;;;;;;;;;;;;;;2.83;100.00;103183.78;5083615;28;20284;-79
2022/01/26 07:40:13;;;;;;;;;;;;;;;2.75;100.00;103172.56;5092565;28;19989;-80
2022/01/26 07:42:39;;;;;;;;;;;;;;;2.80;100.00;103186.97;5111725;28;19920;-80
2022/01/26 07:45:06;;;;;;;;;;;;;;;2.77;100.00;103172.75;5089143;28;19921;-80
2022/01/26 07:47:32;;;;;;;;;;;;;;;2.81;100.00;103174.88;5089630;28;19947;-81
2022/01/26 07:49:58;;;;;;;;;;;;;;;2.82;100.00;103174.13;5088856;28;19920;-80
2022/01/26 07:52:37;;;;;;;;;;;;;;;2.78;100.00;103174.56;5105790;28;19920;-81
2022/01/26 07:55:02;;;;;;;;;;;;;;;2.80;100.00;103173.97;5088555;28;20027;-80
2022/01/26 07:57:28;;;;;;;;;;;;;;;2.84;100.00;103167.41;5086666;28;19943;-80
2022/01/26 07:59:53;;;;;;;;;;;;;;;2.91;100.00;103161.16;5086027;28;19916;-80
2022/01/26 08:02:22;;;;;;;;;;;;;;;2.94;100.00;103164.09;5085726;28;19927;-81
2022/01/26 08:04:47;;;;;;;;;;;;;;;2.90;100.00;103167.13;5108886;28;19987;-80
2022/01/26 08:07:12;;;;;;;;;;;;;;;2.93;100.00;103170.94;5089881;28;19955;-80
2022/01/26 08:09:43;;;;;;;;;;;;;;;2.93;100.00;103173.56;5088618;28;19981;-81
2022/01/26 08:12:09;;;;;;;;;;;;;;;2.97;100.00;103170.53;5089794;28;19920;-81
2022/01/26 08:14:34;;;;;;;;;;;;;;;2.95;100.00;103165.91;5088990;28;19928;-81
2022/01/26 08:16:59;;;;;;;;;;;;;;;2.93;100.00;103160.53;5087961;28;19931;-80
2022/01/26 08:19:24;;;;;;;;;;;;;;;2.93;100.00;103157.94;5089442;28;19928;-80
2022/01/26 08:21:51;;;;;;;;;;;;;;;2.97;100.00;103160.13;5089906;28;19955;-80
2022/01/26 08:24:16;;;;;;;;;;;;;;;3.03;100.00;103160.75;5083513;28;19959;-80
2022/01/26 08:26:46;;;;;;;;;;;;;;;3.02;100.00;103164.09;5086029;28;19924;-80
2022/01/26 08:29:19;;;;;;;;;;;;;;;3.02;100.00;103157.97;5088627;28;19968;-81
2022/01/26 08:31:44;;;;;;;;;;;;;;;3.02;100.00;103155.38;5089335;28;19920;-80
2022/01/26 08:34:10;;;;;;;;;;;;;;;3.05;100.00;103161.81;5088811;28;19939;-81
2022/01/26 08:36:35;;;;;;;;;;;;;;;3.08;100.00;103168.09;5105305;28;20016;-81
2022/01/26 08:39:00;;;;;;;;;;;;;;;3.04;100.00;103161.66;5088844;28;20010;-79
2022/01/26 08:41:26;;;;;;;;;;;;;;;3.08;100.00;103162.88;5082498;28;19923;-80
2022/01/26 08:43:52;;;;;;;;;;;;;;;3.12;100.00;103157.25;5082766;28;19963;-79
2022/01/26 08:46:18;;;;;;;;;;;;;;;3.12;100.00;103160.75;5098470;28;19924;-78
2022/01/26 08:48:43;;;;;;;;;;;;;;;3.13;100.00;103164.31;5099417;28;20020;-79
2022/01/26 08:51:08;;;;;;;;;;;;;;;3.16;100.00;103162.00;5080238;28;20284;-80
2022/01/26 08:53:33;;;;;;;;;;;;;;;3.15;100.00;103171.47;5077897;28;20280;-80
2022/01/26 08:55:59;;;;;;;;;;;;;;;3.16;100.00;103164.63;5079200;28;19920;-79
2022/01/26 08:58:24;;;;;;;;;;;;;;;3.15;100.00;103162.75;5076925;28;19947;-80
2022/01/26 09:00:49;;;;;;;;;;;;;;;3.17;100.00;103150.81;5078297;28;19920;-79
2022/01/26 09:03:27;;;;;;;;;;;;;;;3.24;100.00;103153.28;5078745;28;19924;-80
2022/01/26 09:05:52;;;;;;;;;;;;;;;3.21;100.00;103148.69;5080456;28;19924;-81
2022/01/26 09:08:18;;;;;;;;;;;;;;;3.23;100.00;103165.41;5098909;28;19927;-81
2022/01/26 09:10:43;;;;;;;;;;;;;;;3.30;100.00;103160.81;5081568;28;20010;-81
2022/01/26 09:13:10;;;;;;;;;;;;;;;3.26;100.00;103156.97;5082800;28;19962;-81
2022/01/26 09:15:37;;;;;;;;;;;;;;;3.28;100.00;103157.13;5084104;28;19920;-81
2022/01/26 09:18:05;;;;;;;;;;;;;;;3.32;100.00;103152.38;5103537;28;19927;-80
2022/01/26 09:20:33;;;;;;;;;;;;;;;3.34;100.00;103139.53;5084585;28;19923;-80
2022/01/26 09:22:59;;;;;;;;;;;;;;;3.38;100.00;103158.22;5064108;28;20387;-81
2022/01/26 09:25:24;;;;;;;;;;;;;;;3.42;100.00;103149.97;5101895;28;19927;-80
2022/01/26 09:27:49;;;;;;;;;;;;;;;3.48;100.00;103148.75;5082285;28;20002;-81
2022/01/26 09:30:15;;;;;;;;;;;;;;;3.49;100.00;103161.91;5083230;28;19920;-81
2022/01/26 09:32:42;;;;;;;;;;;;;;;3.50;100.00;103161.16;5102088;28;19931;-81
2022/01/26 09:35:08;;;;;;;;;;;;;;;3.53;100.00;103160.56;5085387;28;20348;-81
2022/01/26 09:37:33;;;;;;;;;;;;;;;3.56;100.00;103153.06;5103375;28;19930;-81
2022/01/26 09:39:59;;;;;;;;;;;;;;;3.52;100.00;103149.22;5082517;28;19983;-80
2022/01/26 09:42:24;;;;;;;;;;;;;;;3.57;100.00;103140.19;5082367;28;19923;-80
2022/01/26 09:44:49;;;;;;;;;;;;;;;3.61;100.00;103140.50;5083830;28;19920;-81
2022/01/26 09:47:15;;;;;;;;;;;;;;;3.64;100.00;103146.94;5081542;28;19920;-81
2022/01/26 09:49:40;;;;;;;;;;;;;;;3.66;100.00;103157.50;5079948;28;19923;-81
2022/01/26 09:52:15;;;;;;;;;;;;;;;3.78;100.00;103163.97;5098712;28;19924;-80
2022/01/26 09:54:43;;;;;;;;;;;;;;;3.86;100.00;103162.13;5038759;28;19975;-81
2022/01/26 09:57:08;;;;;;;;;;;;;;;3.84;100.00;103161.97;5053581;28;19927;-80
2022/01/26 09:59:34;;;;;;;;;;;;;;;3.82;100.00;103153.06;5077804;28;19928;-80
2022/01/26 10:02:01;;;;;;;;;;;;;;;3.89;100.00;103142.47;5060677;28;19930;-80
2022/01/26 10:04:29;;;;;;;;;;;;;;;3.98;100.00;103145.09;5077286;28;19920;-79
2022/01/26 10:07:02;;;;;;;;;;;;;;;4.05;100.00;103133.59;5077590;28;19927;-79
2022/01/26 10:17:39;;;;;;;;;;;;;;;4.18;100.00;103161.78;5054977;28;19927;-80
2022/01/26 10:20:05;;;;;;;;;;;;;;;4.20;100.00;103170.69;5045068;28;20266;-81
2022/01/26 10:22:32;;;;;;;;;;;;;;;4.22;100.00;103167.44;5051584;28;19926;-80
2022/01/26 10:25:18;;;;;;;;;;;;;;;4.21;100.00;103169.91;5048779;28;20011;-80
2022/01/26 10:27:44;;;;;;;;;;;;;;;4.25;100.00;103167.75;5055604;28;19928;-81
2022/01/26 10:30:12;;;;;;;;;;;;;;;4.30;100.00;103169.16;5077242;28;19920;-81
2022/01/26 10:32:45;;;;;;;;;;;;;;;4.35;100.00;103169.59;5071069;28;19952;-80
2022/01/26 10:35:11;;;;;;;;;;;;;;;4.38;100.00;103168.97;5037690;28;20015;-81
2022/01/26 10:37:39;;;;;;;;;;;;;;;4.39;100.00;103169.09;5036558;28;20012;-80
2022/01/26 10:40:14;;;;;;;;;;;;;;;4.37;100.00;103177.59;5063551;28;20006;-81
2022/01/26 10:43:04;;;;;;;;;;;;;;;4.46;100.00;103173.28;5073684;28;19920;-80
2022/01/26 10:45:36;;;;;;;;;;;;;;;4.57;100.00;103177.84;5073180;28;19928;-80
2022/01/26 10:48:15;;;;;;;;;;;;;;;4.59;100.00;103175.38;5063362;28;19976;-80
2022/01/26 10:50:58;;;;;;;;;;;;;;;4.58;100.00;103169.22;5059612;28;20272;-81
2022/01/26 10:53:37;;;;;;;;;;;;;;;4.71;100.00;103160.91;5074802;28;19928;-80
2022/01/26 10:56:02;;;;;;;;;;;;;;;4.81;100.00;103155.78;5075008;28;19924;-80
2022/01/26 10:58:28;;;;;;;;;;;;;;;4.88;100.00;103154.69;5067777;28;19920;-80
2022/01/26 11:00:54;;;;;;;;;;;;;;;4.90;100.00;103157.47;5073953;28;19990;-82
2022/01/26 11:03:21;;;;;;;;;;;;;;;4.93;100.00;103143.00;5077562;28;19954;-82
2022/01/26 11:05:46;;;;;;;;;;;;;;;4.94;100.00;103142.22;5080727;28;19951;-82
2022/01/26 11:08:12;;;;;;;;;;;;;;;4.95;100.00;103146.66;5080489;28;20375;-81
2022/01/26 11:10:38;;;;;;;;;;;;;;;5.04;100.00;103139.72;5070668;28;19950;-83
2022/01/26 11:13:06;;;;;;;;;;;;;;;5.08;100.00;103129.56;5069655;28;20357;-81
2022/01/26 11:15:32;;;;;;;;;;;;;;;5.11;100.00;103120.34;5073973;28;19920;-82
2022/01/26 11:18:04;;;;;;;;;;;;;;;5.18;100.00;103125.34;5077573;28;19928;-81
2022/01/26 11:20:34;;;;;;;;;;;;;;;5.23;100.00;103131.00;5088263;28;19953;-83
2022/01/26 11:23:02;;;;;;;;;;;;;;;5.39;100.00;103131.69;5073136;28;19920;-80
2022/01/26 11:25:28;;;;;;;;;;;;;;;5.44;100.00;103129.50;5056319;28;19982;-81
2022/01/26 11:27:54;;;;;;;;;;;;;;;5.47;100.00;103131.44;5055496;28;19994;-81
2022/01/26 11:30:26;;;;;;;;;;;;;;;5.49;100.00;103129.91;5060204;28;19928;-82
2022/01/26 11:32:57;;;;;;;;;;;;;;;5.49;100.00;103127.31;5065312;28;19975;-82
2022/01/26 11:35:23;;;;;;;;;;;;;;;5.57;100.00;103126.31;5061554;28;19922;-82
2022/01/26 11:38:03;;;;;;;;;;;;;;;5.62;100.00;103127.66;5080610;28;19931;-83
2022/01/26 11:46:08;;;;;;;;;;;;;;;5.49;100.00;103115.16;5078902;28;20084;-82
2022/01/26 11:48:34;;;;;;;;;;;;;;;5.53;100.00;103108.50;5075047;28;19963;-81
2022/01/26 11:51:00;;;;;;;;;;;;;;;5.49;100.00;103106.41;5096526;28;19974;-81
2022/01/26 11:53:27;;;;;;;;;;;;;;;5.56;100.00;103109.72;5055040;28;20023;-81
2022/01/26 11:56:00;;;;;;;;;;;;;;;5.63;100.00;103103.34;5081325;28;19920;-81
2022/01/26 11:58:30;;;;;;;;;;;;;;;5.70;100.00;103104.81;5090213;28;19920;-81
2022/01/26 12:01:11;;;;;;;;;;;;;;;5.71;100.00;103104.06;5060904;28;19917;-83
2022/01/26 12:03:44;;;;;;;;;;;;;;;5.73;100.00;103098.22;5060706;28;20006;-81
2022/01/26 12:06:22;;;;;;;;;;;;;;;5.73;100.00;103103.44;5061669;28;19978;-81
2022/01/26 12:08:47;;;;;;;;;;;;;;;5.74;100.00;103109.56;5057832;28;20380;-81
2022/01/26 12:11:14;;;;;;;;;;;;;;;5.71;100.00;103102.34;5042182;28;19939;-81
2022/01/26 12:13:51;;;;;;;;;;;;;;;5.73;100.00;103113.91;5074457;28;19936;-81
2022/01/26 12:16:23;;;;;;;;;;;;;;;5.77;100.00;103109.84;5069864;28;19927;-83
2022/01/26 12:18:58;;;;;;;;;;;;;;;5.89;100.00;103112.69;5063091;28;19924;-82
2022/01/26 12:38:00;;;;;;;;;;;;;;;5.63;100.00;103097.22;5112525;28;19927;-81
2022/01/26 12:43:11;;;;;;;;;;;;;;;5.69;100.00;103088.25;5109651;28;19977;-81
2022/01/26 12:45:37;;;;;;;;;;;;;;;5.61;100.00;103084.00;5100060;28;19975;-81
2022/01/26 12:48:02;;;;;;;;;;;;;;;5.68;100.00;103085.47;5098306;28;19955;-82
2022/01/26 12:50:27;;;;;;;;;;;;;;;5.62;100.00;103075.38;5079748;28;19952;-83
2022/01/26 12:52:57;;;;;;;;;;;;;;;5.61;100.00;103073.56;5085913;28;19920;-83
2022/01/26 12:55:25;;;;;;;;;;;;;;;5.68;100.00;103075.03;5110314;28;20413;-80
2022/01/26 12:57:51;;;;;;;;;;;;;;;5.67;100.00;103074.13;5090747;28;19932;-83
2022/01/26 13:00:16;;;;;;;;;;;;;;;5.69;100.00;103072.56;5094740;28;19931;-84
2022/01/26 13:02:44;;;;;;;;;;;;;;;5.71;100.00;103076.22;5085260;28;19920;-83
2022/01/26 13:05:10;;;;;;;;;;;;;;;5.67;100.00;103068.91;5083701;28;19962;-83
2022/01/26 13:07:35;;;;;;;;;;;;;;;5.59;100.00;103069.84;5082061;28;19920;-83
2022/01/26 13:10:01;;;;;;;;;;;;;;;5.66;100.00;103067.03;5117709;28;20356;-83
2022/01/26 13:12:33;;;;;;;;;;;;;;;5.74;100.00;103059.91;5098430;28;20019;-83
2022/01/26 13:15:05;;;;;;;;;;;;;;;5.71;100.00;103063.16;5100924;28;19923;-82
2022/01/26 13:23:04;;;;;;;;;;;;;;;5.77;100.00;103059.28;5119333;28;19920;-84
2022/01/26 13:44:40;;;;;;;;;;;;;;;5.75;100.00;103038.22;5078788;28;19928;-81
2022/01/26 13:59:47;;;;;;;;;;;;;;;5.75;100.00;103046.06;5093870;28;20010;-82
2022/01/26 14:02:15;;;;;;;;;;;;;;;5.72;100.00;103038.84;5077617;28;19920;-83
2022/01/26 14:04:40;;;;;;;;;;;;;;;5.71;100.00;103034.38;5086891;28;19984;-81
2022/01/26 14:07:08;;;;;;;;;;;;;;;5.67;100.00;103039.19;5058984;28;19920;-80
2022/01/26 14:09:33;;;;;;;;;;;;;;;5.69;100.00;103040.28;5066602;28;19950;-80
2022/01/26 14:12:10;;;;;;;;;;;;;;;5.71;100.00;103047.47;5056927;28;19920;-81
2022/01/26 14:14:41;;;;;;;;;;;;;;;5.74;100.00;103062.50;5077158;28;20042;-81
2022/01/26 14:17:14;;;;;;;;;;;;;;;5.73;100.00;103048.53;5094517;28;19947;-80
2022/01/26 14:20:06;;;;;;;;;;;;;;;5.68;100.00;103047.19;5077390;28;19951;-82
2022/01/26 14:27:38;;;;;;;;;;;;;;;5.66;100.00;103043.53;5084986;28;19962;-81
2022/01/26 14:30:24;;;;;;;;;;;;;;;5.72;100.00;103051.91;5077058;28;19927;-82
2022/01/26 14:33:15;;;;;;;;;;;;;;;5.67;100.00;103047.97;5075569;28;19970;-81
2022/01/26 14:52:10;;;;;;;;;;;;;;;5.69;100.00;103040.28;5054148;28;19928;-82
2022/01/26 14:54:50;;;;;;;;;;;;;;;5.66;100.00;103033.06;5054281;28;19925;-82
2022/01/26 15:30:01;;;;;;;;;;;;;;;4.88;100.00;103002.34;5086066;28;20299;-81
2022/01/26 15:41:02;;;;;;;;;;;;;;;4.88;100.00;102995.44;5093760;28;19927;-82
2022/01/26 15:43:41;;;;;;;;;;;;;;;4.91;100.00;102997.41;5084115;28;19920;-82
2022/01/26 15:49:12;;;;;;;;;;;;;;;4.79;100.00;102998.09;5082255;28;19955;-81
2022/01/26 16:05:35;;;;;;;;;;;;;;;4.42;100.00;102976.34;5087415;28;19943;-83
2022/01/26 16:08:12;;;;;;;;;;;;;;;4.40;100.00;102979.63;5077687;28;19926;-82
2022/01/26 16:21:27;;;;;;;;;;;;;;;4.28;100.00;102975.03;5096991;28;20028;-80
2022/01/26 17:02:20;;;;;;;;;;;;;;;4.28;100.00;102995.00;5098259;28;20268;-82
2022/01/26 18:31:44;;;;;;;;;;;;;;;4.09;100.00;102930.66;5068965;28;19969;-81
2022/01/26 18:32:33;;;;;;;;;;;;;;;4.05;100.00;102949.38;5096135;28;19926;-80
2022/01/26 18:49:13;;;;;;;;;;;;;;;4.03;100.00;102940.50;5081131;28;20024;-82
2022/01/26 18:51:42;;;;;;;;;;;;;;;4.03;100.00;102939.59;5078933;28;20275;-82
2022/01/26 18:54:08;;;;;;;;;;;;;;;4.02;100.00;102937.75;5078204;28;19924;-81
2022/01/26 18:56:35;;;;;;;;;;;;;;;4.05;100.00;102940.66;5077865;28;20747;-81
2022/01/26 18:59:00;;;;;;;;;;;;;;;4.01;100.00;102947.25;5078355;28;19920;-81
2022/01/26 19:01:26;;;;;;;;;;;;;;;4.01;100.00;102936.84;5079122;28;19920;-81
2022/01/26 19:03:53;;;;;;;;;;;;;;;4.00;100.00;102941.91;5096987;28;20019;-80
2022/01/26 19:06:18;;;;;;;;;;;;;;;4.02;100.00;102924.72;5077834;28;20360;-79
2022/01/26 19:08:43;;;;;;;;;;;;;;;4.08;100.00;102935.72;5077918;28;20015;-80
2022/01/26 19:11:09;;;;;;;;;;;;;;;4.03;100.00;102926.56;5077459;28;20288;-81
2022/01/26 19:13:42;;;;;;;;;;;;;;;4.01;100.00;102930.69;5077466;28;20322;-80
2022/01/26 19:16:40;;;;;;;;;;;;;;;4.04;100.00;102924.09;5076670;28;19931;-81
2022/01/26 19:21:38;;;;;;;;;;;;;;;4.06;100.00;102924.25;5094583;28;19985;-81